Terminal Aerodrome Forecast
Issued by NWS

Home | Current Version | Previous Version | Text Only | Print | Product List | Glossary On
Versions: 1 2 3 4 5 6 7 8 9 10 11 12 13 14 15 16 17 18 19 20 21
045
FTUS43 KICT 301842 AAA
TAFRSL
TAF AMD
KRSL 301842Z 3019/0118 01022G32KT 4SM -RA SCT008 OVC015
      TEMPO 3019/3021 2SM -RA BR OVC008
     FM302100 36025G35KT 6SM -RA OVC008
     FM010500 31015G22KT P6SM OVC008
     FM010900 30015KT P6SM BKN015
     FM011100 29015G25KT P6SM SCT015 BKN050
     FM011300 29018G26KT P6SM SKC=

USA.gov is the U.S. government's official web portal to all federal, state and local government web resources and services.